createdAt,value
2022-09-14T00:01:23.802Z,29.68
2022-09-14T00:03:28.156Z,29.72
2022-09-14T00:05:54.444Z,29.72
2022-09-14T00:08:20.786Z,29.69
2022-09-14T00:10:47.123Z,29.85
2022-09-14T00:13:13.482Z,29.85
2022-09-14T00:15:41.180Z,29.84
2022-09-14T00:18:06.201Z,29.83
2022-09-14T00:20:32.537Z,29.84
2022-09-14T00:22:58.905Z,30.11
2022-09-14T00:25:25.237Z,29.98
2022-09-14T00:27:51.589Z,30.00
2022-09-14T00:30:17.943Z,29.98
2022-09-14T00:32:44.285Z,30.05
2022-09-14T00:35:10.619Z,29.90
2022-09-14T00:37:36.968Z,30.02
2022-09-14T00:40:03.367Z,30.16
2022-09-14T00:42:29.658Z,30.04
2022-09-14T00:44:56.007Z,30.01
2022-09-14T00:47:22.358Z,30.10
2022-09-14T00:49:48.719Z,30.10
2022-09-14T00:52:15.138Z,30.10
2022-09-14T00:54:41.470Z,30.11
2022-09-14T00:57:07.840Z,30.17
2022-09-14T00:59:34.174Z,30.25
2022-09-14T01:02:00.606Z,30.37
2022-09-14T01:04:26.893Z,30.24
2022-09-14T01:06:53.263Z,30.13
2022-09-14T01:09:19.599Z,30.21
2022-09-14T01:11:49.525Z,30.21
2022-09-14T01:14:12.302Z,30.08
2022-09-14T01:16:38.684Z,30.32
2022-09-14T01:19:04.997Z,30.31
2022-09-14T01:21:31.346Z,30.27
2022-09-14T01:23:57.689Z,30.55
2022-09-14T01:26:24.023Z,30.56
2022-09-14T01:28:50.365Z,30.35
2022-09-14T01:31:16.780Z,30.28
2022-09-14T01:33:43.140Z,30.38
2022-09-14T01:36:09.390Z,30.39
2022-09-14T01:38:35.732Z,30.40
2022-09-14T01:41:02.103Z,30.34
2022-09-14T01:43:28.452Z,30.27
2022-09-14T01:45:54.825Z,30.35
2022-09-14T01:48:21.135Z,30.36
2022-09-14T01:50:47.477Z,30.39
2022-09-14T01:53:13.853Z,30.32
2022-09-14T01:55:40.185Z,30.44
2022-09-14T01:58:06.539Z,30.62
2022-09-14T02:00:32.926Z,30.71
2022-09-14T02:02:59.232Z,30.54
2022-09-14T02:05:25.571Z,30.30
2022-09-14T02:07:51.933Z,30.12
2022-09-14T02:10:18.276Z,30.07
2022-09-14T02:12:44.639Z,30.07
2022-09-14T02:15:10.980Z,30.01
2022-09-14T02:17:37.322Z,30.00
2022-09-14T02:20:03.661Z,30.03
2022-09-14T02:22:30.022Z,30.02
2022-09-14T02:24:56.381Z,29.98
2022-09-14T02:27:22.736Z,30.00
2022-09-14T02:29:49.076Z,29.98
2022-09-14T02:32:15.418Z,29.95
2022-09-14T02:34:41.802Z,29.97
2022-09-14T02:37:08.178Z,29.93
2022-09-14T02:39:34.520Z,29.94
2022-09-14T02:42:00.870Z,29.92
2022-09-14T02:44:27.213Z,29.93
2022-09-14T02:46:53.571Z,29.92
2022-09-14T02:49:19.897Z,29.91
2022-09-14T02:51:46.249Z,29.95
2022-09-14T02:54:12.589Z,29.90
2022-09-14T02:56:38.956Z,29.89
2022-09-14T02:59:05.299Z,29.92
2022-09-14T03:01:31.712Z,29.91
2022-09-14T03:03:57.979Z,29.88
2022-09-14T03:06:24.327Z,29.90
2022-09-14T03:08:50.724Z,29.86
2022-09-14T03:11:17.021Z,29.85
2022-09-14T03:13:43.394Z,29.88
2022-09-14T03:16:09.773Z,29.86
2022-09-14T03:18:36.081Z,29.85
2022-09-14T03:21:02.425Z,29.88
2022-09-14T03:23:28.761Z,29.87
2022-09-14T03:25:55.184Z,29.83
2022-09-14T03:28:21.525Z,29.85
2022-09-14T03:30:47.879Z,29.92
2022-09-14T03:33:14.210Z,29.84
2022-09-14T03:35:40.561Z,29.85
2022-09-14T03:38:06.912Z,29.91
2022-09-14T03:40:33.323Z,29.85
2022-09-14T03:42:59.665Z,29.82
2022-09-14T03:45:26.001Z,29.82
2022-09-14T03:47:52.341Z,29.81
2022-09-14T03:50:18.687Z,29.85
2022-09-14T03:52:45.040Z,29.86
2022-09-14T03:55:11.371Z,29.83
2022-09-14T03:57:37.720Z,29.83
2022-09-14T04:00:04.065Z,29.79
2022-09-14T04:02:30.457Z,29.81
2022-09-14T04:04:56.781Z,29.83
2022-09-14T04:07:23.116Z,29.81
2022-09-14T04:09:49.465Z,29.82
2022-09-14T04:12:15.804Z,29.86
2022-09-14T04:14:42.149Z,29.83
2022-09-14T04:17:08.479Z,29.91
2022-09-14T04:19:34.832Z,29.88
2022-09-14T04:22:01.206Z,29.85
2022-09-14T04:24:30.363Z,32.44
2022-09-14T04:26:53.880Z,30.53
2022-09-14T04:29:20.257Z,30.67
2022-09-14T04:31:46.624Z,30.52
2022-09-14T04:34:12.953Z,30.50
2022-09-14T04:36:39.285Z,30.46
2022-09-14T04:39:05.634Z,30.29
2022-09-14T04:41:31.984Z,30.30
2022-09-14T04:43:58.317Z,30.24
2022-09-14T04:46:24.721Z,30.24
2022-09-14T04:48:51.003Z,30.85
2022-09-14T04:51:17.348Z,30.69
2022-09-14T04:53:43.768Z,30.36
2022-09-14T04:56:10.098Z,30.30
2022-09-14T04:58:36.448Z,30.17
2022-09-14T05:01:02.788Z,30.12
2022-09-14T05:03:29.191Z,30.01
2022-09-14T05:05:55.538Z,29.87
2022-09-14T05:08:21.918Z,29.91
2022-09-14T05:10:48.301Z,29.79
2022-09-14T05:13:14.651Z,29.72
2022-09-14T05:15:41.052Z,29.68
2022-09-14T05:18:07.361Z,29.62
2022-09-14T05:20:33.699Z,29.61
2022-09-14T05:23:00.046Z,29.66
2022-09-14T05:25:26.394Z,29.55
2022-09-14T05:27:52.743Z,29.58
2022-09-14T05:30:19.090Z,29.56
2022-09-14T05:32:45.431Z,29.53
2022-09-14T05:35:11.779Z,29.52
2022-09-14T05:37:38.128Z,29.39
2022-09-14T05:40:04.517Z,29.48
2022-09-14T05:42:30.822Z,29.43
2022-09-14T05:44:57.165Z,29.57
2022-09-14T05:47:23.524Z,29.70
2022-09-14T05:49:49.900Z,29.95
2022-09-14T05:52:16.254Z,30.01
2022-09-14T05:54:42.627Z,29.98
2022-09-14T05:57:09.057Z,30.33
2022-09-14T05:59:35.404Z,30.02
2022-09-14T06:02:01.847Z,30.08
2022-09-14T06:04:28.127Z,29.97
2022-09-14T06:07:17.049Z,30.18
2022-09-14T06:09:20.891Z,30.16
2022-09-14T06:11:47.230Z,30.21
2022-09-14T06:14:13.573Z,29.89
2022-09-14T06:16:39.913Z,29.89
2022-09-14T06:19:06.268Z,29.76
2022-09-14T06:21:32.764Z,29.72
2022-09-14T06:23:59.099Z,29.72
2022-09-14T06:26:25.477Z,29.76
2022-09-14T06:28:51.860Z,30.15
2022-09-14T06:31:18.242Z,30.39
2022-09-14T06:33:44.589Z,29.98
2022-09-14T06:36:10.992Z,29.97
2022-09-14T06:38:37.335Z,29.70
2022-09-14T06:41:03.747Z,30.28
2022-09-14T06:43:30.074Z,29.65
2022-09-14T06:45:56.507Z,29.66
2022-09-14T06:48:22.863Z,30.56
2022-09-14T06:50:49.224Z,30.24
2022-09-14T06:53:15.565Z,30.81
2022-09-14T06:55:42.041Z,30.40
2022-09-14T06:58:08.395Z,30.16
2022-09-14T07:00:34.772Z,30.21
2022-09-14T07:03:01.184Z,29.92
2022-09-14T07:05:27.564Z,30.72
2022-09-14T07:07:53.920Z,30.72
2022-09-14T07:10:20.360Z,30.49
2022-09-14T07:12:46.607Z,30.66
2022-09-14T07:15:12.960Z,30.10
2022-09-14T07:17:39.297Z,29.95
2022-09-14T07:20:06.721Z,29.98
2022-09-14T07:22:31.990Z,30.09
2022-09-14T07:24:58.328Z,29.74
2022-09-14T07:27:24.672Z,29.97
2022-09-14T07:29:51.191Z,29.79
2022-09-14T07:32:17.567Z,29.69
2022-09-14T07:34:43.902Z,29.69
2022-09-14T07:37:10.233Z,29.95
2022-09-14T07:39:36.592Z,29.93
2022-09-14T07:42:02.933Z,29.88
2022-09-14T07:44:29.284Z,29.98
2022-09-14T07:46:55.618Z,29.60
2022-09-14T07:49:21.998Z,29.66
2022-09-14T07:51:48.339Z,29.69
2022-09-14T07:54:14.719Z,29.76
2022-09-14T07:56:41.056Z,29.76
2022-09-14T08:01:33.938Z,29.85
2022-09-14T08:04:04.664Z,30.30
2022-09-14T08:06:26.517Z,29.91
2022-09-14T08:08:52.873Z,30.04
2022-09-14T08:11:19.261Z,30.17
2022-09-14T08:13:45.588Z,29.72
2022-09-14T08:16:12.195Z,29.79
2022-09-14T08:18:38.518Z,29.99
2022-09-14T08:21:04.856Z,30.46
2022-09-14T08:23:31.278Z,30.57
2022-09-14T08:25:57.617Z,30.24
2022-09-14T08:28:23.959Z,30.46
2022-09-14T08:30:50.302Z,30.42
2022-09-14T08:33:16.665Z,30.54
2022-09-14T08:35:57.446Z,30.17
2022-09-14T08:38:09.427Z,30.16
2022-09-14T08:40:35.806Z,30.08
2022-09-14T08:43:02.166Z,30.44
2022-09-14T08:45:28.565Z,29.95
2022-09-14T08:47:54.936Z,30.03
2022-09-14T08:50:21.320Z,30.08
2022-09-14T08:52:47.698Z,30.40
2022-09-14T08:55:14.020Z,30.62
2022-09-14T08:57:40.379Z,30.60
2022-09-14T09:00:06.709Z,30.55
2022-09-14T09:02:33.047Z,30.62
2022-09-14T09:04:59.443Z,30.83
2022-09-14T09:07:25.750Z,30.91
2022-09-14T09:09:52.091Z,30.90
2022-09-14T09:12:18.446Z,30.79
2022-09-14T09:14:44.785Z,30.69
2022-09-14T09:17:11.169Z,30.82
2022-09-14T09:19:37.536Z,30.45
2022-09-14T09:22:03.850Z,31.01
2022-09-14T09:24:31.115Z,31.11
2022-09-14T09:26:56.554Z,31.11
2022-09-14T09:29:22.907Z,31.01
2022-09-14T09:31:49.305Z,31.08
2022-09-14T09:34:15.634Z,30.93
2022-09-14T09:36:41.977Z,31.02
2022-09-14T09:39:08.320Z,30.78
2022-09-14T09:41:34.765Z,30.62
2022-09-14T09:44:01.097Z,30.75
2022-09-14T09:46:27.484Z,30.72
2022-09-14T09:48:53.857Z,32.67
2022-09-14T09:51:23.954Z,31.08
2022-09-14T09:53:46.561Z,31.01
2022-09-14T09:56:12.914Z,30.99
2022-09-14T09:58:39.259Z,31.01
2022-09-14T10:01:10.016Z,32.26
2022-09-14T10:03:31.961Z,30.67
2022-09-14T10:05:58.319Z,30.62
2022-09-14T10:08:27.356Z,30.87
2022-09-14T10:10:53.701Z,31.03
2022-09-14T10:13:20.109Z,30.72
2022-09-14T10:15:46.478Z,30.97
2022-09-14T10:18:12.756Z,30.97
2022-09-14T10:20:39.106Z,31.02
2022-09-14T10:23:05.458Z,31.02
2022-09-14T10:25:31.827Z,31.09
2022-09-14T10:27:58.181Z,30.95
2022-09-14T10:30:24.527Z,31.04
2022-09-14T10:32:50.866Z,31.16
2022-09-14T10:35:17.209Z,30.92
2022-09-14T10:37:43.557Z,30.99
2022-09-14T10:40:09.960Z,31.08
2022-09-14T10:42:36.243Z,31.10
2022-09-14T10:45:02.598Z,30.98
2022-09-14T10:47:28.946Z,30.98
2022-09-14T10:49:55.361Z,31.01
2022-09-14T10:52:21.709Z,31.02
2022-09-14T10:54:48.070Z,30.94
2022-09-14T10:57:14.408Z,31.25
2022-09-14T10:59:40.748Z,31.24
2022-09-14T11:02:07.230Z,31.34
2022-09-14T11:04:33.472Z,31.12
2022-09-14T11:06:59.811Z,31.14
2022-09-14T11:09:26.195Z,31.33
2022-09-14T11:11:52.542Z,31.40
2022-09-14T11:14:18.896Z,31.42
2022-09-14T11:16:45.238Z,31.32
2022-09-14T11:19:11.613Z,31.34
2022-09-14T11:21:38.003Z,31.26
2022-09-14T11:24:04.369Z,31.14
2022-09-14T11:26:30.714Z,31.09
2022-09-14T11:28:57.057Z,31.08
2022-09-14T11:31:23.882Z,31.03
2022-09-14T11:33:50.208Z,30.96
2022-09-14T11:36:16.534Z,30.99
2022-09-14T11:38:42.929Z,30.90
2022-09-14T11:41:09.281Z,30.88
2022-09-14T11:43:35.624Z,30.86
2022-09-14T11:46:02.017Z,30.80
2022-09-14T11:48:44.006Z,30.82
2022-09-14T11:50:54.706Z,30.68
2022-09-14T11:53:21.113Z,30.67
2022-09-14T11:55:47.521Z,30.50
2022-09-14T11:58:13.860Z,30.83
2022-09-14T12:00:40.229Z,30.83
2022-09-14T12:03:06.647Z,30.95
2022-09-14T12:05:32.914Z,31.01
2022-09-14T12:07:59.301Z,31.06
2022-09-14T12:10:25.650Z,31.02
2022-09-14T12:12:51.999Z,30.95
2022-09-14T12:15:18.365Z,31.06
2022-09-14T12:17:44.716Z,31.10
2022-09-14T12:20:11.074Z,31.03
2022-09-14T12:22:37.466Z,31.10
2022-09-14T12:25:03.825Z,31.15
2022-09-14T12:27:30.220Z,31.06
2022-09-14T12:29:56.577Z,31.13
2022-09-14T12:32:22.944Z,31.17
2022-09-14T12:34:49.305Z,31.22
2022-09-14T12:37:15.662Z,31.15
2022-09-14T12:39:41.994Z,31.11
2022-09-14T12:42:08.376Z,31.05
2022-09-14T12:44:34.737Z,31.01
2022-09-14T12:47:01.079Z,31.10
2022-09-14T12:49:27.441Z,31.04
2022-09-14T12:51:53.795Z,31.08
2022-09-14T12:54:20.203Z,31.21
2022-09-14T12:56:46.550Z,31.07
2022-09-14T12:59:12.894Z,31.11
2022-09-14T13:01:39.336Z,31.11
2022-09-14T13:04:05.618Z,31.09
2022-09-14T13:06:31.932Z,30.96
2022-09-14T13:08:58.283Z,30.85
2022-09-14T13:11:24.629Z,31.01
2022-09-14T13:13:51.048Z,30.96
2022-09-14T13:16:17.368Z,31.04
2022-09-14T13:18:43.710Z,31.08
2022-09-14T13:21:10.036Z,30.92
2022-09-14T13:23:36.394Z,30.95
2022-09-14T13:26:02.738Z,30.93
2022-09-14T13:28:29.096Z,30.87
2022-09-14T13:30:55.534Z,30.83
2022-09-14T13:33:21.799Z,30.85
2022-09-14T13:35:48.203Z,30.85
2022-09-14T13:38:14.540Z,30.78
2022-09-14T13:40:40.916Z,30.86
2022-09-14T13:43:07.308Z,30.75
2022-09-14T13:45:33.693Z,30.84
2022-09-14T13:47:59.980Z,30.75
2022-09-14T13:50:26.336Z,30.85
2022-09-14T13:53:08.078Z,30.80
2022-09-14T13:55:19.212Z,30.89
2022-09-14T13:57:45.514Z,30.94
2022-09-14T14:00:11.856Z,30.92
2022-09-14T14:02:40.114Z,30.95
2022-09-14T14:05:04.581Z,30.94
2022-09-14T14:07:30.932Z,31.15
2022-09-14T14:09:57.314Z,31.22
2022-09-14T14:12:23.669Z,31.26
2022-09-14T14:14:50.006Z,31.52
2022-09-14T14:17:16.362Z,31.49
2022-09-14T14:19:42.716Z,31.53
2022-09-14T14:22:09.063Z,31.53
2022-09-14T14:24:49.789Z,31.60
2022-09-14T14:27:01.746Z,31.62
2022-09-14T14:29:28.150Z,31.91
2022-09-14T14:31:54.610Z,31.81
2022-09-14T14:34:20.849Z,31.78
2022-09-14T14:36:47.208Z,31.76
2022-09-14T14:39:13.583Z,31.91
2022-09-14T14:41:39.926Z,31.69
2022-09-14T14:44:06.299Z,31.85
2022-09-14T14:46:32.727Z,32.01
2022-09-14T14:48:58.991Z,32.16
2022-09-14T14:51:25.367Z,32.06
2022-09-14T14:53:51.690Z,32.09
2022-09-14T14:56:18.035Z,32.17
2022-09-14T14:58:44.384Z,32.21
2022-09-14T15:01:10.754Z,32.15
2022-09-14T15:03:37.155Z,32.05
2022-09-14T15:06:03.445Z,31.97
2022-09-14T15:08:29.829Z,31.94
2022-09-14T15:10:56.230Z,31.88
2022-09-14T15:13:22.559Z,31.80
2022-09-14T15:15:48.903Z,31.69
2022-09-14T15:18:15.247Z,31.94
2022-09-14T15:20:41.599Z,31.88
2022-09-14T15:23:07.945Z,31.91
2022-09-14T15:25:34.301Z,32.06
2022-09-14T15:28:00.649Z,31.83
2022-09-14T15:30:26.989Z,31.91
2022-09-14T15:32:54.191Z,31.78
2022-09-14T15:35:20.526Z,31.61
2022-09-14T15:37:46.867Z,31.69
2022-09-14T15:40:13.356Z,31.79
2022-09-14T15:42:39.654Z,31.88
2022-09-14T15:45:05.998Z,31.89
2022-09-14T15:47:36.220Z,31.68
2022-09-14T15:49:58.828Z,31.85
2022-09-14T15:52:25.114Z,31.95
2022-09-14T15:54:51.461Z,32.13
2022-09-14T15:57:17.797Z,32.12
2022-09-14T15:59:44.157Z,32.12
2022-09-14T16:02:10.569Z,32.02
2022-09-14T16:04:36.844Z,32.04
2022-09-14T16:07:03.174Z,32.06
2022-09-14T16:09:29.526Z,32.10
2022-09-14T16:12:00.923Z,32.23
2022-09-14T16:14:22.243Z,32.19
2022-09-14T16:16:48.708Z,32.23
2022-09-14T16:19:14.996Z,32.21
2022-09-14T16:21:41.349Z,32.28
2022-09-14T16:24:07.685Z,32.40
2022-09-14T16:26:34.025Z,32.43
2022-09-14T16:29:00.371Z,32.48
2022-09-14T16:31:26.744Z,32.47
2022-09-14T16:33:53.095Z,32.62
2022-09-14T16:36:19.434Z,32.66
2022-09-14T16:38:45.779Z,32.75
2022-09-14T16:41:12.184Z,32.78
2022-09-14T16:43:38.524Z,32.82
2022-09-14T16:46:04.961Z,32.81
2022-09-14T16:48:31.223Z,32.80
2022-09-14T16:50:57.565Z,32.88
2022-09-14T16:53:23.909Z,32.90
2022-09-14T16:55:50.249Z,32.92
2022-09-14T16:58:16.590Z,32.92
2022-09-14T17:00:44.375Z,33.01
2022-09-14T17:03:09.327Z,32.97
2022-09-14T17:05:35.683Z,32.98
2022-09-14T17:08:02.025Z,32.97
2022-09-14T17:10:28.360Z,32.99
2022-09-14T17:12:54.752Z,32.93
2022-09-14T17:15:21.088Z,32.95
2022-09-14T17:17:47.443Z,32.93
2022-09-14T17:20:13.776Z,32.85
2022-09-14T17:22:40.116Z,32.90
2022-09-14T17:25:06.483Z,32.88
2022-09-14T17:27:32.900Z,32.88
2022-09-14T17:29:59.228Z,32.85
2022-09-14T17:32:25.573Z,32.84
2022-09-14T17:34:51.952Z,32.83
2022-09-14T17:37:18.303Z,32.87
2022-09-14T17:39:44.686Z,32.81
2022-09-14T17:42:11.002Z,32.81
2022-09-14T17:44:37.372Z,32.85
2022-09-14T17:47:03.774Z,32.81
2022-09-14T17:49:30.078Z,32.83
2022-09-14T17:51:56.423Z,32.84
2022-09-14T17:54:22.771Z,32.85
2022-09-14T17:56:49.127Z,32.84
2022-09-14T17:59:15.468Z,32.88
2022-09-14T18:01:41.824Z,32.81
2022-09-14T18:04:08.163Z,32.83
2022-09-14T18:06:34.520Z,32.81
2022-09-14T18:09:00.861Z,32.83
2022-09-14T18:11:27.223Z,32.76
2022-09-14T18:13:53.590Z,32.71
2022-09-14T18:16:19.960Z,32.72
2022-09-14T18:18:46.273Z,32.68
2022-09-14T18:21:12.626Z,32.67
2022-09-14T18:23:38.981Z,32.67
2022-09-14T18:26:05.332Z,32.68
2022-09-14T18:28:31.675Z,32.67
2022-09-14T18:30:58.079Z,32.66
2022-09-14T18:35:59.629Z,32.62
2022-09-14T18:38:25.977Z,32.62
2022-09-14T18:40:52.320Z,32.61
2022-09-14T18:43:18.656Z,32.62
2022-09-14T18:45:45.006Z,32.62
2022-09-14T18:48:11.336Z,32.62
2022-09-14T18:50:37.679Z,32.59
2022-09-14T18:53:04.056Z,32.59
2022-09-14T18:55:30.392Z,32.59
2022-09-14T18:57:56.828Z,32.57
2022-09-14T19:00:23.201Z,32.59
2022-09-14T19:02:49.545Z,32.59
2022-09-14T19:05:15.877Z,32.59
2022-09-14T19:07:42.268Z,32.56
2022-09-14T19:10:11.516Z,32.59
2022-09-14T19:12:34.944Z,32.57
2022-09-14T19:15:01.287Z,32.59
2022-09-14T19:17:27.630Z,32.59
2022-09-14T19:19:53.964Z,32.56
2022-09-14T19:22:20.313Z,32.56
2022-09-14T19:24:46.647Z,32.59
2022-09-14T19:27:13.002Z,32.58
2022-09-14T19:29:39.373Z,32.56
2022-09-14T19:32:05.720Z,32.58
2022-09-14T19:34:32.062Z,32.58
2022-09-14T19:36:58.455Z,32.62
2022-09-14T19:39:24.798Z,32.63
2022-09-14T19:41:53.332Z,32.63
2022-09-14T19:44:19.661Z,32.63
2022-09-14T19:46:46.080Z,32.59
2022-09-14T19:49:12.350Z,32.65
2022-09-14T19:51:38.725Z,32.52
2022-09-14T19:54:05.058Z,32.60
2022-09-14T19:56:31.409Z,32.58
2022-09-14T19:58:57.737Z,32.59
2022-09-14T20:01:25.318Z,32.59
2022-09-14T20:03:51.590Z,32.64
2022-09-14T20:06:17.886Z,32.61
2022-09-14T20:08:44.259Z,32.56
2022-09-14T20:11:10.598Z,32.55
2022-09-14T20:13:38.209Z,32.55
2022-09-14T20:16:03.407Z,32.58
2022-09-14T20:18:29.671Z,32.57
2022-09-14T20:20:56.015Z,32.60
2022-09-14T20:23:22.424Z,32.64
2022-09-14T20:25:48.803Z,32.64
2022-09-14T20:28:15.105Z,32.69
2022-09-14T20:30:41.574Z,32.69
2022-09-14T20:33:07.822Z,32.67
2022-09-14T20:35:34.164Z,32.66
2022-09-14T20:38:00.510Z,32.80
2022-09-14T20:40:26.924Z,32.76
2022-09-14T20:42:53.213Z,32.81
2022-09-14T20:45:19.560Z,32.78
2022-09-14T20:47:45.939Z,32.86
2022-09-14T20:50:12.287Z,32.82
2022-09-14T20:52:38.622Z,32.88
2022-09-14T20:55:04.966Z,32.89
2022-09-14T20:57:31.324Z,32.88
2022-09-14T20:59:57.671Z,32.92
2022-09-14T21:02:24.032Z,32.87
2022-09-14T21:04:50.360Z,32.92
2022-09-14T21:07:16.702Z,32.98
2022-09-14T21:09:43.045Z,33.00
2022-09-14T21:12:09.376Z,32.98
2022-09-14T21:14:35.719Z,33.02
2022-09-14T21:17:02.054Z,33.05
2022-09-14T21:19:28.413Z,33.04
2022-09-14T21:21:54.753Z,33.04
2022-09-14T21:24:21.127Z,33.07
2022-09-14T21:26:47.508Z,33.02
2022-09-14T21:29:13.899Z,33.09
2022-09-14T21:31:40.317Z,33.07
2022-09-14T21:34:06.578Z,33.06
2022-09-14T21:36:33.321Z,33.07
2022-09-14T21:38:59.714Z,33.07
2022-09-14T21:41:26.074Z,33.07
2022-09-14T21:43:52.408Z,33.01
2022-09-14T21:46:18.801Z,33.09
2022-09-14T21:48:45.124Z,33.10
2022-09-14T21:51:11.472Z,33.12
2022-09-14T21:53:37.807Z,33.08
2022-09-14T21:56:04.154Z,33.12
2022-09-14T21:58:30.483Z,33.13
2022-09-14T22:00:58.989Z,33.16
2022-09-14T22:03:25.359Z,33.20
2022-09-14T22:05:56.414Z,33.13
2022-09-14T22:08:18.072Z,33.20
2022-09-14T22:10:44.415Z,33.27
2022-09-14T22:13:10.751Z,33.22
2022-09-14T22:15:37.138Z,33.21
2022-09-14T22:18:03.432Z,33.22
2022-09-14T22:20:29.776Z,33.18
2022-09-14T22:22:56.145Z,33.18
2022-09-14T22:25:22.449Z,33.22
2022-09-14T22:27:48.786Z,33.30
2022-09-14T22:30:15.152Z,33.21
2022-09-14T22:32:41.487Z,33.17
2022-09-14T22:35:07.832Z,33.16
2022-09-14T22:37:34.174Z,33.20
2022-09-14T22:40:00.546Z,33.17
2022-09-14T22:42:26.853Z,33.14
2022-09-14T22:44:53.206Z,33.13
2022-09-14T22:47:19.539Z,33.17
2022-09-14T22:49:45.886Z,33.24
2022-09-14T22:52:12.217Z,33.26
2022-09-14T22:54:38.556Z,33.30
2022-09-14T22:57:04.950Z,33.28
2022-09-14T22:59:31.334Z,33.37
2022-09-14T23:01:57.750Z,33.31
2022-09-14T23:04:24.011Z,33.35
2022-09-14T23:06:50.357Z,33.33
2022-09-14T23:09:16.703Z,33.33
2022-09-14T23:11:43.046Z,33.40
2022-09-14T23:14:09.385Z,33.40
2022-09-14T23:16:37.708Z,33.45
2022-09-14T23:19:02.104Z,33.45
2022-09-14T23:21:29.390Z,33.42
2022-09-14T23:23:54.824Z,33.42
2022-09-14T23:26:21.159Z,33.38
2022-09-14T23:28:47.546Z,33.36
2022-09-14T23:31:13.885Z,33.36
2022-09-14T23:33:40.219Z,33.40
2022-09-14T23:36:06.561Z,33.37
2022-09-14T23:38:32.899Z,33.43
2022-09-14T23:40:59.250Z,33.45
2022-09-14T23:43:25.593Z,33.42
2022-09-14T23:45:51.956Z,33.45
2022-09-14T23:48:18.264Z,33.45
2022-09-14T23:50:44.614Z,33.46
2022-09-14T23:53:10.951Z,33.44
2022-09-14T23:55:37.291Z,33.46
2022-09-14T23:58:03.630Z,33.49
